Narita International Airport
RJAA : now visible

Airfield :











YOU CAN JOIN US ON...

 
LOGIN :

Register | Disclaimer

   EN    FR    IT 

 









Legend :    VFR   Marginal VFR   IFR   Intensive IFR   Very Intensive IFR
Visi :
Ceiling :
>= 8 km
>= 3000ft
5 to 8 km
1000 to 3000 ft
1500m to 5 km
500 to 1000 ft
800 to 1500m
200 to 500 ft
< 800m
< 200 ft
Symbols :   Thunderstorms  Fog  Heavy snow  Heavy precipitations  Wind > 20 kt







- Airport Elevation : 141 ft
- IATA code : NRT


RJAA - Narita International

CURRENT METAR :
  • 250630Z 15008KT 130V190 CAVOK 28/14 Q1016 NOSIG RMK A3000

EXPIRED METARs :
  • 250600Z 14010KT CAVOK 28/15 Q1015 NOSIG RMK A3000
  • 250530Z 16008KT 120V210 CAVOK 28/16 Q1016 NOSIG RMK A3000
  • 250500Z 12010KT 090V150 CAVOK 27/18 Q1016 NOSIG RMK A3000
  • 250430Z 15012KT 9999 FEW030 27/18 Q1016 NOSIG RMK 1CU030 A3001
  • 250400Z 13013KT 9999 FEW030 27/19 Q1016 NOSIG RMK 1CU030 A3000

TAF TAF RJAA
Valid from the 25 at 06:00 until the 26 at 12:00 UTC


250507Z 2506/2612 14006KT 9999 FEW030
BECMG 2515/2517 30004KT
TEMPO 2516/2521 4000 BR
BECMG 2600/2603 14010KT
RJJJ FIR / Asia



MET'MAP, your aeronautical weather chart ! - Copyright ORBIFLY December 2007 - Disclaimer

ORBIFLY MET'MAP TEAM :

Programming & Development : Alexandra Zaïnal
Concept & Development : Baudouin d'Aumeries
Co-Development & Prog : Marc-Olivier Méhu
Technical & hardware support : Manuel Goepfert

Contact : metmap@orbifly.com




SOURCES & CREDITS :

   NOAA       Earth
Advisory